Coldwater, Canada
Current Conditions -  °F | °C
As of 7:00 PM on Sunday 23 Nov 2014 (Local Time) from CYQA Reporting Station
Light Rain Light Rain  
Wind Chill: 33°   Ceiling: 300
Heat Index: 41°   Visibility: 0.75mi
Dew Point: 41°   Wind: 14mph
Humidity: 100%   Direction: 140°SE
Pressure: 29.79"   Gusts: NA
Location:  44.71°N, 79.64°W
Report Text: CYQA 240000Z AUTO 14012KT 3/4SM -RA BR VV003 05/05 A2979 RMK SLP096
Loading
Personal Weather Stations






























Interactive Weather Map New forecast layout! Learn more

10-Day Weather Forecast

Advertisements
Track Severe Weather on mobile